createdAt,value
2022-10-12T00:00:59.281Z,15.43
2022-10-12T00:03:28.656Z,17.42
2022-10-12T00:06:04.944Z,11.20
2022-10-12T00:08:33.995Z,10.35
2022-10-12T00:11:02.664Z,7.53
2022-10-12T00:13:31.112Z,8.60
2022-10-12T00:16:03.064Z,12.57
2022-10-12T00:18:32.872Z,12.93
2022-10-12T00:21:04.858Z,18.67
2022-10-12T00:23:33.695Z,17.60
2022-10-12T00:26:04.192Z,8.70
2022-10-12T00:28:32.900Z,12.88
2022-10-12T00:31:01.445Z,16.40
2022-10-12T00:33:30.066Z,12.73
2022-10-12T00:35:59.500Z,13.38
2022-10-12T00:38:30.108Z,15.63
2022-10-12T00:40:58.149Z,13.65
2022-10-12T00:43:31.026Z,17.52
2022-10-12T00:46:00.903Z,10.30
2022-10-12T00:48:29.584Z,13.40
2022-10-12T00:51:01.598Z,15.07
2022-10-12T00:53:35.951Z,11.13
2022-10-12T00:58:34.644Z,11.73
2022-10-12T01:01:03.811Z,12.38
2022-10-12T01:03:33.456Z,9.95
2022-10-12T01:06:03.819Z,9.75
2022-10-12T01:08:32.110Z,11.75
2022-10-12T01:11:00.145Z,13.32
2022-10-12T01:13:28.624Z,14.25
2022-10-12T01:16:04.450Z,15.10
2022-10-12T01:18:40.544Z,14.40
2022-10-12T01:21:18.352Z,12.13
2022-10-12T01:24:36.185Z,11.90
2022-10-12T01:27:34.389Z,8.57
2022-10-12T01:30:19.920Z,11.40
2022-10-12T01:33:10.426Z,12.75
2022-10-12T01:35:44.803Z,9.48
2022-10-12T01:40:56.381Z,10.27
2022-10-12T01:43:24.843Z,12.68
2022-10-12T01:45:54.252Z,9.30
2022-10-12T01:48:22.451Z,10.10
2022-10-12T01:50:53.205Z,7.97
2022-10-12T01:53:30.492Z,11.63
2022-10-12T01:56:06.719Z,20.13
2022-10-12T01:58:47.237Z,11.38
2022-10-12T02:01:24.926Z,36.65
2022-10-12T02:04:00.454Z,36.30
2022-10-12T02:06:36.049Z,20.60
2022-10-12T02:09:10.928Z,14.15
2022-10-12T02:11:42.216Z,16.40
2022-10-12T02:14:15.025Z,12.98
2022-10-12T02:16:50.806Z,16.77
2022-10-12T02:19:23.476Z,25.10
2022-10-12T02:21:53.976Z,14.55
2022-10-12T02:24:23.876Z,15.35
2022-10-12T02:26:54.848Z,11.80
2022-10-12T02:29:25.520Z,11.98
2022-10-12T02:32:00.369Z,12.85
2022-10-12T02:34:33.502Z,11.20
2022-10-12T02:37:08.009Z,10.02
2022-10-12T02:39:43.304Z,9.68
2022-10-12T02:42:17.753Z,12.20
2022-10-12T02:44:47.147Z,12.77
2022-10-12T02:47:18.173Z,11.85
2022-10-12T02:49:47.822Z,15.02
2022-10-12T02:52:16.161Z,10.63
2022-10-12T02:54:44.163Z,9.25
2022-10-12T02:57:12.421Z,9.25
2022-10-12T02:59:40.438Z,10.82
2022-10-12T03:02:10.106Z,11.82
2022-10-12T03:04:39.837Z,10.82
2022-10-12T03:07:08.022Z,10.63
2022-10-12T03:09:36.089Z,20.20
2022-10-12T03:12:04.468Z,15.75
2022-10-12T03:14:33.975Z,21.15
2022-10-12T03:17:02.374Z,13.80
2022-10-12T03:19:30.498Z,13.65
2022-10-12T03:22:00.154Z,17.75
2022-10-12T03:24:28.188Z,14.75
2022-10-12T03:26:56.498Z,18.00
2022-10-12T03:29:24.489Z,11.95
2022-10-12T03:31:52.682Z,10.30
2022-10-12T03:34:20.737Z,12.95
2022-10-12T03:36:48.907Z,20.35
2022-10-12T03:39:18.392Z,18.23
2022-10-12T03:41:46.590Z,14.93
2022-10-12T03:44:14.701Z,19.35
2022-10-12T03:46:42.828Z,17.75
2022-10-12T03:49:11.030Z,15.30
2022-10-12T03:51:39.038Z,16.15
2022-10-12T03:54:07.238Z,15.30
2022-10-12T03:56:36.640Z,20.58
2022-10-12T03:59:04.864Z,19.15
2022-10-12T04:01:32.982Z,17.45
2022-10-12T04:04:01.271Z,19.23
2022-10-12T04:06:29.344Z,16.15
2022-10-12T04:08:57.604Z,17.08
2022-10-12T04:11:25.564Z,19.35
2022-10-12T04:13:55.188Z,20.58
2022-10-12T04:16:25.054Z,18.63
2022-10-12T04:18:55.637Z,21.95
2022-10-12T04:21:25.519Z,19.38
2022-10-12T04:23:53.751Z,17.80
2022-10-12T04:26:21.935Z,37.38
2022-10-12T04:28:50.306Z,16.52
2022-10-12T04:31:19.907Z,17.45
2022-10-12T04:33:48.129Z,16.20
2022-10-12T04:36:16.098Z,12.32
2022-10-12T04:38:44.196Z,17.38
2022-10-12T04:41:12.300Z,15.45
2022-10-12T04:43:40.349Z,12.05
2022-10-12T04:46:08.636Z,13.90
2022-10-12T04:48:37.982Z,14.27
2022-10-12T04:51:06.986Z,15.30
2022-10-12T04:53:35.195Z,28.48
2022-10-12T04:56:04.765Z,15.00
2022-10-12T04:58:33.495Z,13.15
2022-10-12T05:01:02.219Z,14.00
2022-10-12T05:03:30.393Z,16.83
2022-10-12T05:05:59.781Z,13.68
2022-10-12T05:08:27.981Z,16.10
2022-10-12T05:10:58.110Z,11.90
2022-10-12T05:13:26.450Z,12.02
2022-10-12T05:15:54.662Z,11.05
2022-10-12T05:18:22.785Z,13.57
2022-10-12T05:20:55.923Z,10.90
2022-10-12T05:23:26.269Z,13.07
2022-10-12T05:25:56.262Z,15.82
2022-10-12T05:28:24.749Z,16.63
2022-10-12T05:30:53.918Z,18.60
2022-10-12T05:33:21.894Z,22.60
2022-10-12T05:35:54.652Z,11.65
2022-10-12T05:38:24.305Z,15.02
2022-10-12T05:40:59.216Z,16.35
2022-10-12T05:43:28.966Z,12.88
2022-10-12T05:45:57.077Z,13.68
2022-10-12T05:48:25.358Z,19.38
2022-10-12T05:50:53.941Z,17.30
2022-10-12T05:53:22.293Z,25.13
2022-10-12T05:55:56.216Z,19.70
2022-10-12T05:58:26.001Z,16.48
2022-10-12T06:00:54.253Z,22.70
2022-10-12T06:03:26.046Z,14.10
2022-10-12T06:05:54.808Z,16.55
2022-10-12T06:08:22.834Z,20.45
2022-10-12T06:10:52.597Z,16.13
2022-10-12T06:13:21.986Z,15.05
2022-10-12T06:15:50.750Z,16.85
2022-10-12T06:18:19.218Z,15.88
2022-10-12T06:20:49.259Z,18.60
2022-10-12T06:23:17.250Z,27.25
2022-10-12T06:25:47.118Z,17.98
2022-10-12T06:28:15.324Z,18.23
2022-10-12T06:30:44.959Z,21.58
2022-10-12T06:33:13.113Z,19.92
2022-10-12T06:35:41.346Z,19.88
2022-10-12T06:38:09.333Z,24.88
2022-10-12T06:40:37.552Z,25.70
2022-10-12T06:43:05.561Z,23.92
2022-10-12T06:45:33.892Z,17.40
2022-10-12T06:48:03.246Z,17.13
2022-10-12T06:50:31.551Z,19.58
2022-10-12T06:52:59.803Z,16.95
2022-10-12T06:55:28.167Z,21.48
2022-10-12T06:57:57.123Z,14.30
2022-10-12T07:00:25.267Z,17.73
2022-10-12T07:02:53.937Z,13.93
2022-10-12T07:05:25.084Z,13.65
2022-10-12T07:07:53.332Z,16.33
2022-10-12T07:10:21.330Z,13.05
2022-10-12T07:12:49.689Z,12.82
2022-10-12T07:15:17.939Z,13.60
2022-10-12T07:17:46.196Z,14.73
2022-10-12T07:20:14.417Z,20.60
2022-10-12T07:22:44.641Z,12.63
2022-10-12T07:25:12.736Z,11.80
2022-10-12T07:27:41.523Z,12.00
2022-10-12T07:30:11.574Z,13.10
2022-10-12T07:32:39.798Z,25.55
2022-10-12T07:35:08.457Z,15.98
2022-10-12T07:37:36.937Z,13.15
2022-10-12T07:40:07.745Z,26.75
2022-10-12T07:42:35.895Z,12.23
2022-10-12T07:45:03.968Z,11.25
2022-10-12T07:47:32.051Z,14.90
2022-10-12T07:50:00.115Z,14.07
2022-10-12T07:52:28.681Z,21.20
2022-10-12T07:54:56.683Z,16.05
2022-10-12T07:57:26.392Z,9.68
2022-10-12T07:59:54.516Z,18.35
2022-10-12T08:02:22.772Z,15.20
2022-10-12T08:04:50.858Z,18.65
2022-10-12T08:07:19.371Z,16.13
2022-10-12T08:09:49.460Z,14.73
2022-10-12T08:12:17.651Z,17.10
2022-10-12T08:14:46.952Z,11.60
2022-10-12T08:17:15.070Z,13.52
2022-10-12T08:19:43.065Z,14.93
2022-10-12T08:22:12.401Z,11.02
2022-10-12T08:24:40.491Z,16.65
2022-10-12T08:27:08.490Z,22.98
2022-10-12T08:29:36.642Z,19.00
2022-10-12T08:32:06.278Z,14.40
2022-10-12T08:34:34.650Z,17.40
2022-10-12T08:37:02.665Z,19.80
2022-10-12T08:39:30.774Z,10.30
2022-10-12T08:42:14.831Z,16.77
2022-10-12T08:44:58.537Z,12.30
2022-10-12T08:47:38.300Z,13.60
2022-10-12T08:50:10.577Z,11.48
2022-10-12T08:52:44.399Z,8.60
2022-10-12T08:55:26.256Z,9.52
2022-10-12T08:57:54.268Z,11.13
2022-10-12T09:00:22.374Z,13.13
2022-10-12T09:03:06.709Z,14.20
2022-10-12T09:05:40.511Z,7.82
2022-10-12T09:08:15.050Z,12.95
2022-10-12T09:10:49.045Z,9.95
2022-10-12T09:13:33.590Z,10.23
2022-10-12T09:18:41.046Z,8.93
2022-10-12T09:21:12.742Z,10.32
2022-10-12T09:23:42.590Z,11.10
2022-10-12T09:26:17.152Z,7.03
2022-10-12T09:28:47.695Z,7.50
2022-10-12T09:31:44.690Z,7.80
2022-10-12T09:34:18.887Z,10.50
2022-10-12T09:36:47.580Z,4.85
2022-10-12T09:39:19.991Z,8.90
2022-10-12T09:41:50.249Z,8.43
2022-10-12T09:44:27.649Z,8.07
2022-10-12T09:46:59.819Z,6.20
2022-10-12T09:49:41.655Z,7.55
2022-10-12T09:52:10.992Z,8.75
2022-10-12T09:54:41.979Z,7.00
2022-10-12T09:57:10.559Z,7.35
2022-10-12T09:59:40.797Z,7.22
2022-10-12T10:02:16.580Z,11.60
2022-10-12T10:04:47.023Z,7.03
2022-10-12T10:07:25.320Z,11.20
2022-10-12T10:10:17.115Z,8.30
2022-10-12T10:12:51.219Z,7.20
2022-10-12T10:15:23.685Z,6.72
2022-10-12T10:17:54.395Z,6.72
2022-10-12T10:20:33.661Z,9.60
2022-10-12T10:23:04.338Z,11.00
2022-10-12T10:25:33.160Z,10.70
2022-10-12T10:28:29.671Z,11.98
2022-10-12T10:31:02.469Z,11.57
2022-10-12T10:33:31.577Z,7.22
2022-10-12T10:36:05.288Z,11.32
2022-10-12T10:38:49.767Z,8.77
2022-10-12T10:41:20.020Z,12.07
2022-10-12T10:43:50.016Z,8.48
2022-10-12T10:46:25.892Z,8.57
2022-10-12T10:48:59.080Z,5.97
2022-10-12T10:54:26.790Z,7.53
2022-10-12T10:57:00.167Z,10.88
2022-10-12T10:59:36.913Z,7.88
2022-10-12T11:02:15.764Z,7.95
2022-10-12T11:04:47.177Z,7.43
2022-10-12T11:07:22.579Z,7.65
2022-10-12T11:09:55.360Z,10.05
2022-10-12T11:18:24.763Z,6.25
2022-10-12T11:23:59.629Z,9.52
2022-10-12T11:26:31.749Z,9.48
2022-10-12T11:29:15.487Z,6.22
2022-10-12T11:34:18.766Z,6.28
2022-10-12T11:37:14.646Z,9.02
2022-10-12T11:39:44.971Z,8.15
2022-10-12T11:42:21.942Z,6.70
2022-10-12T11:44:51.672Z,8.27
2022-10-12T11:47:31.392Z,8.18
2022-10-12T11:50:02.756Z,6.78
2022-10-12T11:52:38.195Z,8.77
2022-10-12T11:55:36.259Z,7.70
2022-10-12T11:58:13.694Z,8.40
2022-10-12T12:01:03.381Z,6.10
2022-10-12T12:03:36.210Z,6.95
2022-10-12T12:06:37.876Z,9.95
2022-10-12T12:09:19.806Z,6.13
2022-10-12T12:11:49.493Z,6.57
2022-10-12T12:15:00.669Z,7.40
2022-10-12T12:17:32.171Z,6.95
2022-10-12T12:20:01.953Z,6.03
2022-10-12T12:22:48.486Z,10.57
2022-10-12T12:25:19.886Z,6.18
2022-10-12T12:27:52.011Z,7.50
2022-10-12T12:30:33.692Z,6.28
2022-10-12T12:33:04.211Z,6.45
2022-10-12T12:35:37.656Z,10.63
2022-10-12T12:41:15.745Z,5.05
2022-10-12T12:44:04.048Z,8.50
2022-10-12T12:47:39.951Z,5.68
2022-10-12T12:50:00.906Z,8.13
2022-10-12T12:52:32.497Z,9.65
2022-10-12T12:55:32.416Z,5.95
2022-10-12T12:58:16.129Z,6.90
2022-10-12T13:00:54.769Z,8.63
2022-10-12T13:03:46.365Z,7.45
2022-10-12T13:06:58.210Z,9.98
2022-10-12T13:09:46.572Z,8.15
2022-10-12T13:12:34.023Z,8.88
2022-10-12T13:15:14.125Z,9.00
2022-10-12T13:18:18.488Z,7.15
2022-10-12T13:20:57.808Z,5.07
2022-10-12T13:23:28.156Z,8.63
2022-10-12T13:26:02.351Z,9.95
2022-10-12T13:28:33.607Z,6.40
2022-10-12T13:31:05.771Z,5.22
2022-10-12T13:33:40.187Z,7.18
2022-10-12T13:36:10.226Z,9.55
2022-10-12T13:38:39.130Z,7.80
2022-10-12T13:41:10.123Z,7.38
2022-10-12T13:43:45.239Z,8.68
2022-10-12T13:46:14.821Z,7.85
2022-10-12T13:49:05.179Z,8.90
2022-10-12T13:51:34.907Z,11.70
2022-10-12T13:54:04.085Z,7.22
2022-10-12T13:56:32.245Z,7.38
2022-10-12T13:59:05.419Z,11.20
2022-10-12T14:01:49.047Z,7.68
2022-10-12T14:04:18.632Z,8.30
2022-10-12T14:06:50.522Z,6.35
2022-10-12T14:09:21.240Z,6.78
2022-10-12T14:11:51.000Z,5.13
2022-10-12T14:14:25.164Z,6.57
2022-10-12T14:16:53.491Z,6.40
2022-10-12T14:19:34.866Z,6.28
2022-10-12T14:22:03.884Z,11.48
2022-10-12T14:24:33.411Z,10.75
2022-10-12T14:27:03.656Z,8.00
2022-10-12T14:29:37.620Z,9.00
2022-10-12T14:32:08.143Z,10.93
2022-10-12T14:34:43.822Z,15.82
2022-10-12T14:37:28.005Z,9.13
2022-10-12T14:40:00.788Z,10.52
2022-10-12T14:42:34.243Z,10.82
2022-10-12T14:45:03.289Z,12.50
2022-10-12T14:47:33.818Z,7.25
2022-10-12T14:50:08.460Z,9.13
2022-10-12T14:52:40.753Z,9.85
2022-10-12T14:55:16.638Z,7.15
2022-10-12T14:57:45.362Z,7.88
2022-10-12T15:00:16.165Z,6.95
2022-10-12T15:02:45.930Z,7.97
2022-10-12T15:05:17.661Z,7.90
2022-10-12T15:07:46.921Z,7.20
2022-10-12T15:10:15.862Z,7.85
2022-10-12T15:12:44.782Z,6.55
2022-10-12T15:15:28.955Z,8.23
2022-10-12T15:17:57.164Z,7.75
2022-10-12T15:20:27.165Z,8.48
2022-10-12T15:22:55.249Z,6.05
2022-10-12T15:25:26.794Z,6.10
2022-10-12T15:27:54.835Z,5.15
2022-10-12T15:30:22.966Z,7.70
2022-10-12T15:32:51.283Z,7.60
2022-10-12T15:35:24.467Z,4.05
2022-10-12T15:37:56.328Z,10.15
2022-10-12T15:40:24.571Z,8.00
2022-10-12T15:42:52.720Z,5.97
2022-10-12T15:45:24.002Z,6.13
2022-10-12T15:47:53.163Z,6.30
2022-10-12T15:50:23.420Z,6.88
2022-10-12T15:52:54.202Z,7.60
2022-10-12T15:55:24.794Z,11.02
2022-10-12T15:57:54.270Z,4.53
2022-10-12T16:00:25.983Z,5.03
2022-10-12T16:02:54.390Z,7.70
2022-10-12T16:05:25.811Z,7.10
2022-10-12T16:07:55.686Z,5.75
2022-10-12T16:10:30.756Z,10.48
2022-10-12T16:12:58.864Z,5.20
2022-10-12T16:15:29.807Z,15.50
2022-10-12T16:17:58.735Z,6.05
2022-10-12T16:20:27.753Z,11.18
2022-10-12T16:22:57.763Z,10.13
2022-10-12T16:25:27.169Z,9.15
2022-10-12T16:27:57.284Z,5.82
2022-10-12T16:30:26.529Z,11.18
2022-10-12T16:32:54.906Z,5.50
2022-10-12T16:35:23.139Z,8.38
2022-10-12T16:37:51.123Z,9.35
2022-10-12T16:40:20.973Z,8.60
2022-10-12T16:42:53.117Z,8.60
2022-10-12T16:45:21.711Z,8.00
2022-10-12T16:47:50.481Z,6.78
2022-10-12T16:50:18.804Z,5.25
2022-10-12T16:52:47.067Z,8.27
2022-10-12T16:55:15.625Z,7.47
2022-10-12T16:57:45.450Z,10.10
2022-10-12T17:00:17.036Z,9.10
2022-10-12T17:02:45.061Z,6.15
2022-10-12T17:05:13.602Z,7.43
2022-10-12T17:07:41.769Z,8.40
2022-10-12T17:10:10.851Z,6.15
2022-10-12T17:12:39.009Z,3.72
2022-10-12T17:15:09.958Z,7.40
2022-10-12T17:17:37.987Z,9.52
2022-10-12T17:20:06.938Z,8.93
2022-10-12T17:22:35.824Z,6.50
2022-10-12T17:25:04.232Z,8.55
2022-10-12T17:27:32.502Z,9.02
2022-10-12T17:30:01.106Z,8.88
2022-10-12T17:32:30.563Z,7.80
2022-10-12T17:34:58.584Z,13.18
2022-10-12T17:37:26.625Z,5.97
2022-10-12T17:39:55.095Z,14.95
2022-10-12T17:42:23.280Z,10.95
2022-10-12T17:44:51.300Z,9.98
2022-10-12T17:47:19.838Z,8.02
2022-10-12T17:49:49.357Z,7.70
2022-10-12T17:52:17.712Z,6.88
2022-10-12T17:54:46.070Z,8.57
2022-10-12T17:57:14.405Z,7.75
2022-10-12T17:59:42.715Z,7.97
2022-10-12T18:02:11.347Z,6.75
2022-10-12T18:04:39.417Z,8.25
2022-10-12T18:07:08.794Z,7.53
2022-10-12T18:09:36.847Z,7.57
2022-10-12T18:12:05.218Z,11.10
2022-10-12T18:14:33.249Z,8.32
2022-10-12T18:17:01.789Z,8.52
2022-10-12T18:19:30.117Z,5.25
2022-10-12T18:21:58.167Z,7.30
2022-10-12T18:24:28.771Z,6.75
2022-10-12T18:26:56.997Z,5.70
2022-10-12T18:29:25.066Z,9.38
2022-10-12T18:31:53.490Z,7.00
2022-10-12T18:34:21.847Z,11.80
2022-10-12T18:36:49.965Z,9.10
2022-10-12T18:39:18.046Z,5.88
2022-10-12T18:41:51.432Z,6.93
2022-10-12T18:44:21.130Z,10.60
2022-10-12T18:46:49.425Z,6.13
2022-10-12T18:49:17.550Z,8.27
2022-10-12T18:51:51.896Z,11.40
2022-10-12T18:56:49.139Z,10.30
2022-10-12T18:59:19.300Z,7.88
2022-10-12T19:01:48.220Z,6.38
2022-10-12T19:04:16.623Z,6.95
2022-10-12T19:06:44.803Z,5.82
2022-10-12T19:09:14.251Z,9.80
2022-10-12T19:11:42.478Z,9.50
2022-10-12T19:14:14.789Z,8.60
2022-10-12T19:16:43.395Z,7.18
2022-10-12T19:19:19.701Z,12.50
2022-10-12T19:21:49.353Z,9.52
2022-10-12T19:24:17.411Z,10.82
2022-10-12T19:26:46.072Z,8.90
2022-10-12T19:29:15.961Z,8.73
2022-10-12T19:31:46.222Z,10.13
2022-10-12T19:34:15.858Z,8.57
2022-10-12T19:36:43.954Z,8.57
2022-10-12T19:39:16.169Z,15.05
2022-10-12T19:41:44.290Z,9.38
2022-10-12T19:44:13.386Z,12.27
2022-10-12T19:46:47.216Z,12.60
2022-10-12T19:49:16.819Z,12.82
2022-10-12T19:51:45.216Z,11.68
2022-10-12T19:54:14.684Z,12.50
2022-10-12T19:56:42.900Z,14.63
2022-10-12T19:59:11.023Z,9.32
2022-10-12T20:01:40.462Z,14.95
2022-10-12T20:04:12.101Z,8.70
2022-10-12T20:06:40.706Z,13.13
2022-10-12T20:09:09.661Z,10.27
2022-10-12T20:11:38.382Z,10.32
2022-10-12T20:14:07.206Z,13.55
2022-10-12T20:16:35.715Z,10.85
2022-10-12T20:19:04.030Z,11.60
2022-10-12T20:21:33.581Z,11.23
2022-10-12T20:24:01.605Z,17.05
2022-10-12T20:26:29.867Z,19.45
2022-10-12T20:28:58.175Z,18.13
2022-10-12T20:31:27.981Z,14.57
2022-10-12T20:33:58.145Z,14.05
2022-10-12T20:36:29.415Z,16.33
2022-10-12T20:39:00.185Z,19.10
2022-10-12T20:41:29.001Z,14.68
2022-10-12T20:43:57.504Z,13.88
2022-10-12T20:46:26.182Z,14.50
2022-10-12T20:48:58.959Z,12.40
2022-10-12T20:51:29.519Z,13.18
2022-10-12T20:54:00.792Z,16.67
2022-10-12T20:56:29.530Z,11.25
2022-10-12T20:58:57.646Z,13.30
2022-10-12T21:01:26.899Z,8.43
2022-10-12T21:03:55.856Z,6.60
2022-10-12T21:06:24.320Z,13.23
2022-10-12T21:08:52.903Z,13.10
2022-10-12T21:11:25.864Z,10.15
2022-10-12T21:13:55.321Z,8.98
2022-10-12T21:16:23.650Z,10.10
2022-10-12T21:18:55.007Z,10.93
2022-10-12T21:21:24.179Z,9.15
2022-10-12T21:23:54.672Z,11.10
2022-10-12T21:26:25.655Z,13.73
2022-10-12T21:28:54.389Z,9.70
2022-10-12T21:31:27.047Z,13.70
2022-10-12T21:33:57.750Z,9.40
2022-10-12T21:36:27.366Z,8.13
2022-10-12T21:38:55.925Z,10.70
2022-10-12T21:41:27.032Z,9.75
2022-10-12T21:43:55.677Z,12.27
2022-10-12T21:46:26.275Z,7.25
2022-10-12T21:48:54.996Z,11.57
2022-10-12T21:51:26.332Z,13.95
2022-10-12T21:53:54.811Z,14.73
2022-10-12T21:56:26.139Z,15.38
2022-10-12T21:58:57.384Z,11.13
2022-10-12T22:01:27.779Z,9.13
2022-10-12T22:03:57.179Z,11.60
2022-10-12T22:06:27.156Z,10.52
2022-10-12T22:08:56.966Z,8.93
2022-10-12T22:11:28.420Z,13.40
2022-10-12T22:14:00.082Z,14.23
2022-10-12T22:16:29.251Z,9.15
2022-10-12T22:18:58.802Z,9.00
2022-10-12T22:21:34.465Z,9.13
2022-10-12T22:24:02.600Z,8.43
2022-10-12T22:26:32.370Z,12.73
2022-10-12T22:29:03.232Z,7.07
2022-10-12T22:31:31.695Z,10.43
2022-10-12T22:33:59.834Z,10.18
2022-10-12T22:36:30.715Z,10.77
2022-10-12T22:38:59.582Z,10.25
2022-10-12T22:41:27.572Z,8.93
2022-10-12T22:43:57.642Z,12.18
2022-10-12T22:46:26.883Z,11.15
2022-10-12T22:48:55.556Z,8.77
2022-10-12T22:51:31.411Z,10.85
2022-10-12T22:54:00.455Z,10.60
2022-10-12T22:56:28.886Z,12.15
2022-10-12T22:58:59.331Z,9.68
2022-10-12T23:01:27.948Z,11.18
2022-10-12T23:03:56.365Z,10.55
2022-10-12T23:06:24.716Z,7.45
2022-10-12T23:08:52.978Z,10.68
2022-10-12T23:11:23.093Z,10.55
2022-10-12T23:13:51.441Z,12.70
2022-10-12T23:16:22.553Z,8.02
2022-10-12T23:18:59.006Z,8.52
2022-10-12T23:21:28.535Z,8.55
2022-10-12T23:23:56.949Z,7.97
2022-10-12T23:26:26.596Z,8.32
2022-10-12T23:28:55.745Z,10.02
2022-10-12T23:31:26.739Z,8.93
2022-10-12T23:33:57.406Z,10.73
2022-10-12T23:36:25.556Z,12.75
2022-10-12T23:38:53.717Z,8.73
2022-10-12T23:41:21.786Z,9.88
2022-10-12T23:43:49.990Z,10.40
2022-10-12T23:46:18.082Z,7.78
2022-10-12T23:48:47.480Z,8.60
2022-10-12T23:51:15.628Z,9.30
2022-10-12T23:53:43.656Z,16.58
2022-10-12T23:56:12.251Z,8.82
2022-10-12T23:58:40.658Z,10.75
